sensor_id;sensor_type;location;lat;lon;timestamp;temperature;humidity
69589;SHT31;56792;50.644;17.984;2022-07-23T00:01:22;20.11;68.80
69589;SHT31;56792;50.644;17.984;2022-07-23T00:04:21;20.11;69.23
69589;SHT31;56792;50.644;17.984;2022-07-23T00:06:53;20.07;69.25
69589;SHT31;56792;50.644;17.984;2022-07-23T00:09:25;20.05;69.71
69589;SHT31;56792;50.644;17.984;2022-07-23T00:11:58;20.05;70.12
69589;SHT31;56792;50.644;17.984;2022-07-23T00:14:30;20.01;69.81
69589;SHT31;56792;50.644;17.984;2022-07-23T00:17:03;19.96;69.62
69589;SHT31;56792;50.644;17.984;2022-07-23T00:19:35;19.91;69.50
69589;SHT31;56792;50.644;17.984;2022-07-23T00:22:07;19.85;69.26
69589;SHT31;56792;50.644;17.984;2022-07-23T00:24:39;19.81;69.43
69589;SHT31;56792;50.644;17.984;2022-07-23T00:27:11;19.75;69.13
69589;SHT31;56792;50.644;17.984;2022-07-23T00:29:43;19.68;69.44
69589;SHT31;56792;50.644;17.984;2022-07-23T00:32:15;19.64;69.62
69589;SHT31;56792;50.644;17.984;2022-07-23T00:34:48;19.59;69.34
69589;SHT31;56792;50.644;17.984;2022-07-23T00:37:20;19.52;69.16
69589;SHT31;56792;50.644;17.984;2022-07-23T00:40:22;19.47;69.37
69589;SHT31;56792;50.644;17.984;2022-07-23T00:43:22;19.43;69.80
69589;SHT31;56792;50.644;17.984;2022-07-23T00:45:55;19.42;70.30
69589;SHT31;56792;50.644;17.984;2022-07-23T00:48:27;19.39;70.59
69589;SHT31;56792;50.644;17.984;2022-07-23T00:53:32;19.32;71.03
69589;SHT31;56792;50.644;17.984;2022-07-23T00:56:05;19.31;71.47
69589;SHT31;56792;50.644;17.984;2022-07-23T00:58:38;19.30;71.90
69589;SHT31;56792;50.644;17.984;2022-07-23T01:01:13;19.25;72.03
69589;SHT31;56792;50.644;17.984;2022-07-23T01:03:45;19.25;72.34
69589;SHT31;56792;50.644;17.984;2022-07-23T01:06:17;19.20;72.41
69589;SHT31;56792;50.644;17.984;2022-07-23T01:08:49;19.18;72.59
69589;SHT31;56792;50.644;17.984;2022-07-23T01:11:22;19.15;72.74
69589;SHT31;56792;50.644;17.984;2022-07-23T01:13:55;19.13;72.85
69589;SHT31;56792;50.644;17.984;2022-07-23T01:16:28;19.08;72.82
69589;SHT31;56792;50.644;17.984;2022-07-23T01:19:00;19.02;72.77
69589;SHT31;56792;50.644;17.984;2022-07-23T01:21:34;18.97;72.45
69589;SHT31;56792;50.644;17.984;2022-07-23T01:24:09;18.94;72.24
69589;SHT31;56792;50.644;17.984;2022-07-23T01:26:52;18.91;72.25
69589;SHT31;56792;50.644;17.984;2022-07-23T01:29:24;18.91;71.93
69589;SHT31;56792;50.644;17.984;2022-07-23T01:31:58;18.90;72.43
69589;SHT31;56792;50.644;17.984;2022-07-23T01:34:32;18.91;72.42
69589;SHT31;56792;50.644;17.984;2022-07-23T01:37:04;18.89;72.15
69589;SHT31;56792;50.644;17.984;2022-07-23T01:39:37;18.85;72.16
69589;SHT31;56792;50.644;17.984;2022-07-23T01:42:09;18.82;72.41
69589;SHT31;56792;50.644;17.984;2022-07-23T01:44:42;18.76;72.48
69589;SHT31;56792;50.644;17.984;2022-07-23T01:47:19;18.72;72.49
69589;SHT31;56792;50.644;17.984;2022-07-23T01:49:53;18.70;72.67
69589;SHT31;56792;50.644;17.984;2022-07-23T01:52:48;18.66;73.17
69589;SHT31;56792;50.644;17.984;2022-07-23T01:55:20;18.64;73.55
69589;SHT31;56792;50.644;17.984;2022-07-23T01:57:53;18.62;74.07
69589;SHT31;56792;50.644;17.984;2022-07-23T02:03:23;18.57;74.26
69589;SHT31;56792;50.644;17.984;2022-07-23T02:06:07;18.53;74.51
69589;SHT31;56792;50.644;17.984;2022-07-23T02:08:52;18.48;74.86
69589;SHT31;56792;50.644;17.984;2022-07-23T02:11:36;18.45;75.03
69589;SHT31;56792;50.644;17.984;2022-07-23T02:14:20;18.41;74.56
69589;SHT31;56792;50.644;17.984;2022-07-23T02:17:04;18.38;74.54
69589;SHT31;56792;50.644;17.984;2022-07-23T02:19:49;18.38;74.60
69589;SHT31;56792;50.644;17.984;2022-07-23T02:22:33;18.37;74.87
69589;SHT31;56792;50.644;17.984;2022-07-23T02:25:17;18.38;74.79
69589;SHT31;56792;50.644;17.984;2022-07-23T02:28:01;18.37;74.70
69589;SHT31;56792;50.644;17.984;2022-07-23T02:30:46;18.35;74.68
69589;SHT31;56792;50.644;17.984;2022-07-23T02:33:30;18.35;74.87
69589;SHT31;56792;50.644;17.984;2022-07-23T02:36:17;18.35;74.74
69589;SHT31;56792;50.644;17.984;2022-07-23T02:39:01;18.35;74.89
69589;SHT31;56792;50.644;17.984;2022-07-23T02:41:45;18.36;74.92
69589;SHT31;56792;50.644;17.984;2022-07-23T02:44:29;18.35;74.88
69589;SHT31;56792;50.644;17.984;2022-07-23T02:47:14;18.34;74.85
69589;SHT31;56792;50.644;17.984;2022-07-23T02:49:47;18.32;74.93
69589;SHT31;56792;50.644;17.984;2022-07-23T02:52:20;18.31;75.18
69589;SHT31;56792;50.644;17.984;2022-07-23T02:55:05;18.32;75.35
69589;SHT31;56792;50.644;17.984;2022-07-23T02:57:48;18.29;75.67
69589;SHT31;56792;50.644;17.984;2022-07-23T03:00:40;18.29;75.74
69589;SHT31;56792;50.644;17.984;2022-07-23T03:03:15;18.27;75.59
69589;SHT31;56792;50.644;17.984;2022-07-23T03:06:01;18.26;75.50
69589;SHT31;56792;50.644;17.984;2022-07-23T03:08:46;18.24;75.49
69589;SHT31;56792;50.644;17.984;2022-07-23T03:11:30;18.25;75.52
69589;SHT31;56792;50.644;17.984;2022-07-23T03:14:14;18.21;75.50
69589;SHT31;56792;50.644;17.984;2022-07-23T03:16:58;18.21;75.40
69589;SHT31;56792;50.644;17.984;2022-07-23T03:19:42;18.24;75.64
69589;SHT31;56792;50.644;17.984;2022-07-23T03:22:26;18.28;75.69
69589;SHT31;56792;50.644;17.984;2022-07-23T03:25:10;18.30;75.68
69589;SHT31;56792;50.644;17.984;2022-07-23T03:27:57;18.27;76.07
69589;SHT31;56792;50.644;17.984;2022-07-23T03:30:38;18.24;76.44
69589;SHT31;56792;50.644;17.984;2022-07-23T03:33:18;18.24;76.65
69589;SHT31;56792;50.644;17.984;2022-07-23T03:35:57;18.27;76.79
69589;SHT31;56792;50.644;17.984;2022-07-23T03:38:39;18.29;76.73
69589;SHT31;56792;50.644;17.984;2022-07-23T03:41:21;18.29;76.60
69589;SHT31;56792;50.644;17.984;2022-07-23T03:44:05;18.29;76.69
69589;SHT31;56792;50.644;17.984;2022-07-23T03:46:46;18.34;76.80
69589;SHT31;56792;50.644;17.984;2022-07-23T03:49:25;18.38;76.71
69589;SHT31;56792;50.644;17.984;2022-07-23T03:52:11;18.44;76.76
69589;SHT31;56792;50.644;17.984;2022-07-23T03:54:58;18.49;76.80
69589;SHT31;56792;50.644;17.984;2022-07-23T03:57:38;18.53;76.91
69589;SHT31;56792;50.644;17.984;2022-07-23T04:00:21;18.58;76.89
69589;SHT31;56792;50.644;17.984;2022-07-23T04:03:13;18.62;76.90
69589;SHT31;56792;50.644;17.984;2022-07-23T04:06:00;18.69;77.00
69589;SHT31;56792;50.644;17.984;2022-07-23T04:08:53;18.75;76.75
69589;SHT31;56792;50.644;17.984;2022-07-23T04:11:29;18.77;76.35
69589;SHT31;56792;50.644;17.984;2022-07-23T04:14:06;18.82;76.33
69589;SHT31;56792;50.644;17.984;2022-07-23T04:17:00;18.84;76.00
69589;SHT31;56792;50.644;17.984;2022-07-23T04:19:53;18.86;75.37
69589;SHT31;56792;50.644;17.984;2022-07-23T04:22:36;18.90;75.41
69589;SHT31;56792;50.644;17.984;2022-07-23T04:25:17;18.99;75.03
69589;SHT31;56792;50.644;17.984;2022-07-23T04:28:01;19.05;74.91
69589;SHT31;56792;50.644;17.984;2022-07-23T04:30:45;19.11;74.68
69589;SHT31;56792;50.644;17.984;2022-07-23T04:33:33;19.19;74.38
69589;SHT31;56792;50.644;17.984;2022-07-23T04:36:16;19.27;74.27
69589;SHT31;56792;50.644;17.984;2022-07-23T04:38:57;19.34;74.40
69589;SHT31;56792;50.644;17.984;2022-07-23T04:41:41;19.42;74.40
69589;SHT31;56792;50.644;17.984;2022-07-23T04:44:28;19.50;74.01
69589;SHT31;56792;50.644;17.984;2022-07-23T04:47:09;19.57;73.61
69589;SHT31;56792;50.644;17.984;2022-07-23T04:49:52;19.65;73.53
69589;SHT31;56792;50.644;17.984;2022-07-23T04:52:37;19.72;73.54
69589;SHT31;56792;50.644;17.984;2022-07-23T04:55:21;19.81;73.65
69589;SHT31;56792;50.644;17.984;2022-07-23T04:58:05;19.91;73.55
69589;SHT31;56792;50.644;17.984;2022-07-23T05:00:49;20.00;73.51
69589;SHT31;56792;50.644;17.984;2022-07-23T05:03:33;20.12;73.60
69589;SHT31;56792;50.644;17.984;2022-07-23T05:06:17;20.22;73.37
69589;SHT31;56792;50.644;17.984;2022-07-23T05:09:00;20.34;73.05
69589;SHT31;56792;50.644;17.984;2022-07-23T05:11:44;20.48;72.96
69589;SHT31;56792;50.644;17.984;2022-07-23T05:14:28;20.60;72.56
69589;SHT31;56792;50.644;17.984;2022-07-23T05:17:13;20.74;72.57
69589;SHT31;56792;50.644;17.984;2022-07-23T05:19:58;20.85;72.13
69589;SHT31;56792;50.644;17.984;2022-07-23T05:22:42;20.97;71.97
69589;SHT31;56792;50.644;17.984;2022-07-23T05:25:28;21.11;71.73
69589;SHT31;56792;50.644;17.984;2022-07-23T05:28:11;21.23;71.49
69589;SHT31;56792;50.644;17.984;2022-07-23T05:30:55;21.33;71.50
69589;SHT31;56792;50.644;17.984;2022-07-23T05:33:39;21.43;71.10
69589;SHT31;56792;50.644;17.984;2022-07-23T05:36:23;21.53;70.80
69589;SHT31;56792;50.644;17.984;2022-07-23T05:39:07;21.65;70.42
69589;SHT31;56792;50.644;17.984;2022-07-23T05:41:52;21.77;70.32
69589;SHT31;56792;50.644;17.984;2022-07-23T05:44:33;21.90;70.13
69589;SHT31;56792;50.644;17.984;2022-07-23T05:47:07;21.99;69.36
69589;SHT31;56792;50.644;17.984;2022-07-23T05:49:42;22.09;69.01
69589;SHT31;56792;50.644;17.984;2022-07-23T05:52:18;22.18;68.49
69589;SHT31;56792;50.644;17.984;2022-07-23T05:55:25;22.29;67.39
69589;SHT31;56792;50.644;17.984;2022-07-23T05:57:59;22.38;67.28
69589;SHT31;56792;50.644;17.984;2022-07-23T06:00:36;22.48;67.16
69589;SHT31;56792;50.644;17.984;2022-07-23T06:03:10;22.57;66.34
69589;SHT31;56792;50.644;17.984;2022-07-23T06:05:44;22.65;65.77
69589;SHT31;56792;50.644;17.984;2022-07-23T06:08:18;22.77;65.73
69589;SHT31;56792;50.644;17.984;2022-07-23T06:10:51;22.86;65.18
69589;SHT31;56792;50.644;17.984;2022-07-23T06:13:35;22.95;64.72
69589;SHT31;56792;50.644;17.984;2022-07-23T06:16:08;23.08;64.81
69589;SHT31;56792;50.644;17.984;2022-07-23T06:18:47;23.25;65.02
69589;SHT31;56792;50.644;17.984;2022-07-23T06:21:21;23.39;63.81
69589;SHT31;56792;50.644;17.984;2022-07-23T06:23:57;23.53;63.52
69589;SHT31;56792;50.644;17.984;2022-07-23T06:26:40;23.69;62.85
69589;SHT31;56792;50.644;17.984;2022-07-23T06:29:24;23.86;62.09
69589;SHT31;56792;50.644;17.984;2022-07-23T06:32:09;24.06;61.86
69589;SHT31;56792;50.644;17.984;2022-07-23T06:34:49;24.28;61.52
69589;SHT31;56792;50.644;17.984;2022-07-23T06:37:33;24.49;60.63
69589;SHT31;56792;50.644;17.984;2022-07-23T06:40:20;24.71;60.18
69589;SHT31;56792;50.644;17.984;2022-07-23T06:43:04;24.91;59.37
69589;SHT31;56792;50.644;17.984;2022-07-23T06:45:45;25.13;58.70
69589;SHT31;56792;50.644;17.984;2022-07-23T06:48:29;25.39;57.92
69589;SHT31;56792;50.644;17.984;2022-07-23T06:51:12;25.59;57.18
69589;SHT31;56792;50.644;17.984;2022-07-23T06:54:05;25.76;56.72
69589;SHT31;56792;50.644;17.984;2022-07-23T06:56:57;25.97;56.41
69589;SHT31;56792;50.644;17.984;2022-07-23T06:59:48;26.14;55.87
69589;SHT31;56792;50.644;17.984;2022-07-23T07:02:29;26.28;54.93
69589;SHT31;56792;50.644;17.984;2022-07-23T07:05:12;26.46;55.35
69589;SHT31;56792;50.644;17.984;2022-07-23T07:07:53;26.76;55.61
69589;SHT31;56792;50.644;17.984;2022-07-23T07:10:38;27.05;53.38
69589;SHT31;56792;50.644;17.984;2022-07-23T07:13:19;27.34;52.82
69589;SHT31;56792;50.644;17.984;2022-07-23T07:16:08;27.64;52.42
69589;SHT31;56792;50.644;17.984;2022-07-23T07:19:04;27.90;51.51
69589;SHT31;56792;50.644;17.984;2022-07-23T07:21:44;28.13;51.15
69589;SHT31;56792;50.644;17.984;2022-07-23T07:24:37;28.35;49.96
69589;SHT31;56792;50.644;17.984;2022-07-23T07:27:12;28.50;49.70
69589;SHT31;56792;50.644;17.984;2022-07-23T07:29:58;28.60;49.66
69589;SHT31;56792;50.644;17.984;2022-07-23T07:32:37;28.70;49.17
69589;SHT31;56792;50.644;17.984;2022-07-23T07:35:14;28.80;49.07
69589;SHT31;56792;50.644;17.984;2022-07-23T07:38:07;28.90;48.57
69589;SHT31;56792;50.644;17.984;2022-07-23T07:40:48;29.06;48.55
69589;SHT31;56792;50.644;17.984;2022-07-23T07:43:27;29.24;47.83
69589;SHT31;56792;50.644;17.984;2022-07-23T07:46:08;29.42;47.51
69589;SHT31;56792;50.644;17.984;2022-07-23T07:48:53;29.60;46.65
69589;SHT31;56792;50.644;17.984;2022-07-23T07:51:32;29.76;46.53
69589;SHT31;56792;50.644;17.984;2022-07-23T07:54:16;29.91;45.75
69589;SHT31;56792;50.644;17.984;2022-07-23T07:56:49;30.10;45.57
69589;SHT31;56792;50.644;17.984;2022-07-23T07:59:32;30.33;46.11
69589;SHT31;56792;50.644;17.984;2022-07-23T08:02:09;30.54;45.68
69589;SHT31;56792;50.644;17.984;2022-07-23T08:04:42;30.68;45.30
69589;SHT31;56792;50.644;17.984;2022-07-23T08:07:19;30.83;44.22
69589;SHT31;56792;50.644;17.984;2022-07-23T08:09:53;30.94;43.44
69589;SHT31;56792;50.644;17.984;2022-07-23T08:12:28;31.10;43.28
69589;SHT31;56792;50.644;17.984;2022-07-23T08:15:13;31.25;42.50
69589;SHT31;56792;50.644;17.984;2022-07-23T08:17:50;31.38;42.48
69589;SHT31;56792;50.644;17.984;2022-07-23T08:20:27;31.55;41.70
69589;SHT31;56792;50.644;17.984;2022-07-23T08:23:11;31.69;40.87
69589;SHT31;56792;50.644;17.984;2022-07-23T08:25:46;31.85;39.01
69589;SHT31;56792;50.644;17.984;2022-07-23T08:28:23;32.04;38.80
69589;SHT31;56792;50.644;17.984;2022-07-23T08:31:02;32.33;37.93
69589;SHT31;56792;50.644;17.984;2022-07-23T08:33:42;32.66;36.59
69589;SHT31;56792;50.644;17.984;2022-07-23T08:36:17;32.95;36.22
69589;SHT31;56792;50.644;17.984;2022-07-23T08:38:53;33.11;35.41
69589;SHT31;56792;50.644;17.984;2022-07-23T08:41:26;33.08;35.66
69589;SHT31;56792;50.644;17.984;2022-07-23T08:44:02;33.19;35.35
69589;SHT31;56792;50.644;17.984;2022-07-23T08:46:37;33.17;34.55
69589;SHT31;56792;50.644;17.984;2022-07-23T08:49:12;33.10;34.91
69589;SHT31;56792;50.644;17.984;2022-07-23T08:51:47;33.13;35.04
69589;SHT31;56792;50.644;17.984;2022-07-23T08:54:24;33.08;35.06
69589;SHT31;56792;50.644;17.984;2022-07-23T08:57:05;33.08;35.16
69589;SHT31;56792;50.644;17.984;2022-07-23T08:59:43;33.07;34.98
69589;SHT31;56792;50.644;17.984;2022-07-23T09:02:15;33.12;35.16
69589;SHT31;56792;50.644;17.984;2022-07-23T09:04:48;33.11;34.96
69589;SHT31;56792;50.644;17.984;2022-07-23T09:07:21;32.95;33.90
69589;SHT31;56792;50.644;17.984;2022-07-23T09:10:06;32.85;34.44
69589;SHT31;56792;50.644;17.984;2022-07-23T09:12:43;32.87;34.29
69589;SHT31;56792;50.644;17.984;2022-07-23T09:15:16;32.88;34.44
69589;SHT31;56792;50.644;17.984;2022-07-23T09:17:52;32.88;33.97
69589;SHT31;56792;50.644;17.984;2022-07-23T09:20:24;32.84;33.97
69589;SHT31;56792;50.644;17.984;2022-07-23T09:22:56;32.78;33.80
69589;SHT31;56792;50.644;17.984;2022-07-23T09:25:29;32.84;34.10
69589;SHT31;56792;50.644;17.984;2022-07-23T09:28:02;32.98;34.12
69589;SHT31;56792;50.644;17.984;2022-07-23T09:30:39;33.02;33.22
69589;SHT31;56792;50.644;17.984;2022-07-23T09:33:19;32.95;33.22
69589;SHT31;56792;50.644;17.984;2022-07-23T09:35:54;32.97;33.14
69589;SHT31;56792;50.644;17.984;2022-07-23T09:38:30;33.02;33.39
69589;SHT31;56792;50.644;17.984;2022-07-23T09:41:18;33.11;33.49
69589;SHT31;56792;50.644;17.984;2022-07-23T09:43:57;33.20;33.77
69589;SHT31;56792;50.644;17.984;2022-07-23T09:46:40;33.32;33.43
69589;SHT31;56792;50.644;17.984;2022-07-23T09:49:19;33.39;32.94
69589;SHT31;56792;50.644;17.984;2022-07-23T09:51:54;33.49;33.30
69589;SHT31;56792;50.644;17.984;2022-07-23T09:54:34;33.62;33.51
69589;SHT31;56792;50.644;17.984;2022-07-23T09:57:12;33.73;32.71
69589;SHT31;56792;50.644;17.984;2022-07-23T09:59:47;33.66;32.34
69589;SHT31;56792;50.644;17.984;2022-07-23T10:02:23;33.56;32.61
69589;SHT31;56792;50.644;17.984;2022-07-23T10:05:23;33.54;32.96
69589;SHT31;56792;50.644;17.984;2022-07-23T10:08:32;33.71;32.71
69589;SHT31;56792;50.644;17.984;2022-07-23T10:11:27;33.92;32.17
69589;SHT31;56792;50.644;17.984;2022-07-23T10:14:12;34.21;32.13
69589;SHT31;56792;50.644;17.984;2022-07-23T10:16:53;34.57;31.93
69589;SHT31;56792;50.644;17.984;2022-07-23T10:19:25;34.94;31.15
69589;SHT31;56792;50.644;17.984;2022-07-23T10:21:59;35.08;30.82
69589;SHT31;56792;50.644;17.984;2022-07-23T10:27:55;35.29;30.69
69589;SHT31;56792;50.644;17.984;2022-07-23T10:30:49;35.55;30.64
69589;SHT31;56792;50.644;17.984;2022-07-23T10:33:39;35.79;30.50
69589;SHT31;56792;50.644;17.984;2022-07-23T10:36:32;35.77;30.47
69589;SHT31;56792;50.644;17.984;2022-07-23T10:39:17;35.68;29.93
69589;SHT31;56792;50.644;17.984;2022-07-23T10:42:05;35.81;29.60
69589;SHT31;56792;50.644;17.984;2022-07-23T10:44:44;35.93;29.23
69589;SHT31;56792;50.644;17.984;2022-07-23T10:47:26;35.91;29.62
69589;SHT31;56792;50.644;17.984;2022-07-23T10:50:21;35.74;29.54
69589;SHT31;56792;50.644;17.984;2022-07-23T10:53:14;35.37;29.46
69589;SHT31;56792;50.644;17.984;2022-07-23T10:55:48;35.04;29.52
69589;SHT31;56792;50.644;17.984;2022-07-23T10:58:23;34.92;29.65
69589;SHT31;56792;50.644;17.984;2022-07-23T11:01:35;34.86;30.06
69589;SHT31;56792;50.644;17.984;2022-07-23T11:04:08;34.65;30.58
69589;SHT31;56792;50.644;17.984;2022-07-23T11:09:40;34.17;30.46
69589;SHT31;56792;50.644;17.984;2022-07-23T11:15:11;34.05;31.04
69589;SHT31;56792;50.644;17.984;2022-07-23T11:20:34;33.76;31.48
69589;SHT31;56792;50.644;17.984;2022-07-23T11:23:09;33.67;31.65
69589;SHT31;56792;50.644;17.984;2022-07-23T11:25:53;33.62;31.74
69589;SHT31;56792;50.644;17.984;2022-07-23T11:28:28;33.75;31.90
69589;SHT31;56792;50.644;17.984;2022-07-23T11:31:07;33.83;31.80
69589;SHT31;56792;50.644;17.984;2022-07-23T11:37:08;33.88;32.21
69589;SHT31;56792;50.644;17.984;2022-07-23T11:39:59;33.67;32.48
69589;SHT31;56792;50.644;17.984;2022-07-23T11:42:40;33.43;32.51
69589;SHT31;56792;50.644;17.984;2022-07-23T11:45:31;33.19;32.31
69589;SHT31;56792;50.644;17.984;2022-07-23T11:48:09;32.92;32.73
69589;SHT31;56792;50.644;17.984;2022-07-23T11:50:49;32.76;33.04
69589;SHT31;56792;50.644;17.984;2022-07-23T11:53:28;32.64;33.36
69589;SHT31;56792;50.644;17.984;2022-07-23T11:56:07;32.46;33.69
69589;SHT31;56792;50.644;17.984;2022-07-23T11:58:53;32.19;34.86
69589;SHT31;56792;50.644;17.984;2022-07-23T12:01:28;31.83;36.03
69589;SHT31;56792;50.644;17.984;2022-07-23T12:04:01;31.38;37.25
69589;SHT31;56792;50.644;17.984;2022-07-23T12:06:38;31.04;38.06
69589;SHT31;56792;50.644;17.984;2022-07-23T12:09:15;30.86;38.97
69589;SHT31;56792;50.644;17.984;2022-07-23T12:14:48;30.63;40.79
69589;SHT31;56792;50.644;17.984;2022-07-23T12:17:32;30.43;40.90
69589;SHT31;56792;50.644;17.984;2022-07-23T12:20:12;30.29;41.27
69589;SHT31;56792;50.644;17.984;2022-07-23T12:22:55;30.18;41.44
69589;SHT31;56792;50.644;17.984;2022-07-23T12:25:35;30.07;42.13
69589;SHT31;56792;50.644;17.984;2022-07-23T12:28:11;29.88;44.25
69589;SHT31;56792;50.644;17.984;2022-07-23T12:30:51;29.50;47.02
69589;SHT31;56792;50.644;17.984;2022-07-23T12:33:26;29.01;50.58
69589;SHT31;56792;50.644;17.984;2022-07-23T12:36:02;28.55;53.09
69589;SHT31;56792;50.644;17.984;2022-07-23T12:38:38;28.15;53.93
69589;SHT31;56792;50.644;17.984;2022-07-23T12:41:15;27.81;54.89
69589;SHT31;56792;50.644;17.984;2022-07-23T12:43:48;27.75;55.75
69589;SHT31;56792;50.644;17.984;2022-07-23T12:46:21;27.81;56.52
69589;SHT31;56792;50.644;17.984;2022-07-23T12:48:54;27.83;56.85
69589;SHT31;56792;50.644;17.984;2022-07-23T12:51:27;27.82;57.39
69589;SHT31;56792;50.644;17.984;2022-07-23T12:54:07;27.91;58.09
69589;SHT31;56792;50.644;17.984;2022-07-23T12:56:40;28.20;58.24
69589;SHT31;56792;50.644;17.984;2022-07-23T12:59:16;28.60;57.78
69589;SHT31;56792;50.644;17.984;2022-07-23T13:01:54;28.88;57.70
69589;SHT31;56792;50.644;17.984;2022-07-23T13:04:27;29.01;56.88
69589;SHT31;56792;50.644;17.984;2022-07-23T13:07:01;28.93;56.81
69589;SHT31;56792;50.644;17.984;2022-07-23T13:09:35;28.85;57.38
69589;SHT31;56792;50.644;17.984;2022-07-23T13:12:08;28.95;57.33
69589;SHT31;56792;50.644;17.984;2022-07-23T13:14:40;29.03;57.14
69589;SHT31;56792;50.644;17.984;2022-07-23T13:17:13;29.03;56.98
69589;SHT31;56792;50.644;17.984;2022-07-23T13:19:45;28.89;57.27
69589;SHT31;56792;50.644;17.984;2022-07-23T13:22:18;28.75;57.61
69589;SHT31;56792;50.644;17.984;2022-07-23T13:24:50;28.61;57.69
69589;SHT31;56792;50.644;17.984;2022-07-23T13:27:23;28.45;57.77
69589;SHT31;56792;50.644;17.984;2022-07-23T13:29:55;28.28;58.18
69589;SHT31;56792;50.644;17.984;2022-07-23T13:32:28;28.15;58.37
69589;SHT31;56792;50.644;17.984;2022-07-23T13:35:00;27.99;58.83
69589;SHT31;56792;50.644;17.984;2022-07-23T13:37:34;27.85;59.33
69589;SHT31;56792;50.644;17.984;2022-07-23T13:40:07;27.77;59.65
69589;SHT31;56792;50.644;17.984;2022-07-23T13:42:40;27.66;60.14
69589;SHT31;56792;50.644;17.984;2022-07-23T13:45:13;27.58;60.87
69589;SHT31;56792;50.644;17.984;2022-07-23T13:47:45;27.51;60.83
69589;SHT31;56792;50.644;17.984;2022-07-23T13:50:18;27.43;61.21
69589;SHT31;56792;50.644;17.984;2022-07-23T13:52:51;27.40;61.50
69589;SHT31;56792;50.644;17.984;2022-07-23T13:55:24;27.34;61.68
69589;SHT31;56792;50.644;17.984;2022-07-23T13:57:57;27.25;61.87
69589;SHT31;56792;50.644;17.984;2022-07-23T14:00:31;27.19;61.82
69589;SHT31;56792;50.644;17.984;2022-07-23T14:03:06;27.21;61.94
69589;SHT31;56792;50.644;17.984;2022-07-23T14:05:39;27.27;62.41
69589;SHT31;56792;50.644;17.984;2022-07-23T14:08:12;27.30;62.17
69589;SHT31;56792;50.644;17.984;2022-07-23T14:10:45;27.28;62.12
69589;SHT31;56792;50.644;17.984;2022-07-23T14:13:18;27.25;62.06
69589;SHT31;56792;50.644;17.984;2022-07-23T14:15:51;27.25;62.23
69589;SHT31;56792;50.644;17.984;2022-07-23T14:18:24;27.29;62.13
69589;SHT31;56792;50.644;17.984;2022-07-23T14:20:58;27.40;62.17
69589;SHT31;56792;50.644;17.984;2022-07-23T14:23:31;27.46;62.33
69589;SHT31;56792;50.644;17.984;2022-07-23T14:26:03;27.49;62.40
69589;SHT31;56792;50.644;17.984;2022-07-23T14:28:36;27.51;62.06
69589;SHT31;56792;50.644;17.984;2022-07-23T14:31:08;27.54;62.07
69589;SHT31;56792;50.644;17.984;2022-07-23T14:33:41;27.68;61.85
69589;SHT31;56792;50.644;17.984;2022-07-23T14:36:13;27.86;61.92
69589;SHT31;56792;50.644;17.984;2022-07-23T14:38:48;28.09;61.78
69589;SHT31;56792;50.644;17.984;2022-07-23T14:41:21;28.28;61.28
69589;SHT31;56792;50.644;17.984;2022-07-23T14:43:53;28.41;60.47
69589;SHT31;56792;50.644;17.984;2022-07-23T14:46:26;28.44;59.77
69589;SHT31;56792;50.644;17.984;2022-07-23T14:48:59;28.41;59.73
69589;SHT31;56792;50.644;17.984;2022-07-23T14:51:32;28.41;59.77
69589;SHT31;56792;50.644;17.984;2022-07-23T14:54:04;28.39;60.15
69589;SHT31;56792;50.644;17.984;2022-07-23T14:56:37;28.31;60.14
69589;SHT31;56792;50.644;17.984;2022-07-23T14:59:09;28.27;60.33
69589;SHT31;56792;50.644;17.984;2022-07-23T15:01:42;28.30;60.11
69589;SHT31;56792;50.644;17.984;2022-07-23T15:04:14;28.31;59.72
69589;SHT31;56792;50.644;17.984;2022-07-23T15:06:47;28.33;59.49
69589;SHT31;56792;50.644;17.984;2022-07-23T15:09:20;28.26;59.76
69589;SHT31;56792;50.644;17.984;2022-07-23T15:11:55;28.20;60.13
69589;SHT31;56792;50.644;17.984;2022-07-23T15:14:28;28.16;59.73
69589;SHT31;56792;50.644;17.984;2022-07-23T15:17:01;28.11;59.56
69589;SHT31;56792;50.644;17.984;2022-07-23T15:19:33;28.04;59.60
69589;SHT31;56792;50.644;17.984;2022-07-23T15:22:06;27.98;60.05
69589;SHT31;56792;50.644;17.984;2022-07-23T15:24:38;27.91;59.98
69589;SHT31;56792;50.644;17.984;2022-07-23T15:27:11;27.84;59.93
69589;SHT31;56792;50.644;17.984;2022-07-23T15:29:44;27.76;59.79
69589;SHT31;56792;50.644;17.984;2022-07-23T15:32:17;27.75;59.73
69589;SHT31;56792;50.644;17.984;2022-07-23T15:34:51;27.79;60.41
69589;SHT31;56792;50.644;17.984;2022-07-23T15:37:24;27.80;60.37
69589;SHT31;56792;50.644;17.984;2022-07-23T15:39:58;27.83;60.37
69589;SHT31;56792;50.644;17.984;2022-07-23T15:42:36;27.89;60.54
69589;SHT31;56792;50.644;17.984;2022-07-23T15:45:11;27.95;60.41
69589;SHT31;56792;50.644;17.984;2022-07-23T15:47:45;27.98;59.87
69589;SHT31;56792;50.644;17.984;2022-07-23T15:50:19;28.00;59.53
69589;SHT31;56792;50.644;17.984;2022-07-23T15:52:51;28.03;59.45
69589;SHT31;56792;50.644;17.984;2022-07-23T15:55:24;28.03;59.73
69589;SHT31;56792;50.644;17.984;2022-07-23T15:57:57;27.99;60.08
69589;SHT31;56792;50.644;17.984;2022-07-23T16:00:30;27.90;60.04
69589;SHT31;56792;50.644;17.984;2022-07-23T16:03:02;27.84;59.80
69589;SHT31;56792;50.644;17.984;2022-07-23T16:05:35;27.77;59.68
69589;SHT31;56792;50.644;17.984;2022-07-23T16:08:10;27.67;60.01
69589;SHT31;56792;50.644;17.984;2022-07-23T16:10:45;27.59;60.29
69589;SHT31;56792;50.644;17.984;2022-07-23T16:13:18;27.55;60.71
69589;SHT31;56792;50.644;17.984;2022-07-23T16:15:50;27.49;60.89
69589;SHT31;56792;50.644;17.984;2022-07-23T16:18:23;27.44;61.16
69589;SHT31;56792;50.644;17.984;2022-07-23T16:20:57;27.39;61.40
69589;SHT31;56792;50.644;17.984;2022-07-23T16:23:30;27.34;61.06
69589;SHT31;56792;50.644;17.984;2022-07-23T16:26:03;27.29;60.87
69589;SHT31;56792;50.644;17.984;2022-07-23T16:28:40;27.24;60.91
69589;SHT31;56792;50.644;17.984;2022-07-23T16:31:17;27.18;60.81
69589;SHT31;56792;50.644;17.984;2022-07-23T16:33:49;27.12;60.92
69589;SHT31;56792;50.644;17.984;2022-07-23T16:36:22;27.04;61.19
69589;SHT31;56792;50.644;17.984;2022-07-23T16:38:54;27.00;61.44
69589;SHT31;56792;50.644;17.984;2022-07-23T16:41:27;26.97;61.61
69589;SHT31;56792;50.644;17.984;2022-07-23T16:44:00;26.94;61.87
69589;SHT31;56792;50.644;17.984;2022-07-23T16:46:33;26.90;61.87
69589;SHT31;56792;50.644;17.984;2022-07-23T16:49:05;26.84;62.02